Hampton, New York
Current Conditions -  °F | °C
As of 1:55 PM on Wednesday 26 Nov 2014 (Local Time) from KRUT Reporting Station
Overcast Overcast  
Wind Chill: 30°   Ceiling: 400
Heat Index: 30°   Visibility: 0.75mi
Dew Point: 28°   Wind: 0mph
Humidity: 93%   Direction: NA
Pressure: 30.1"   Gusts: NA
Location:  43.52°N, 73.25°W
Report Text: KRUT 261855Z 00000KT 3/4SM OVC004 M01/M02 A3010 RMK AO1
Loading
Personal Weather Stations






























Interactive Weather Map New forecast layout! Learn more

10-Day Weather Forecast

Advertisements
Track Severe Weather on mobile